createdAt,value
2023-06-30T00:01:34.882Z,22.20
2023-06-30T00:04:03.334Z,22.30
2023-06-30T00:06:30.820Z,22.20
2023-06-30T00:08:57.694Z,22.20
2023-06-30T00:11:25.201Z,22.10
2023-06-30T00:13:53.282Z,22.00
2023-06-30T00:16:20.856Z,22.00
2023-06-30T00:18:47.889Z,22.00
2023-06-30T00:21:14.916Z,21.90
2023-06-30T00:23:41.596Z,21.90
2023-06-30T00:26:08.425Z,21.90
2023-06-30T00:28:35.073Z,21.70
2023-06-30T00:31:01.771Z,21.70
2023-06-30T00:33:28.494Z,21.70
2023-06-30T00:35:55.195Z,21.60
2023-06-30T00:38:21.960Z,21.50
2023-06-30T00:40:48.640Z,21.50
2023-06-30T00:43:15.377Z,21.40
2023-06-30T00:45:42.063Z,21.30
2023-06-30T00:48:08.810Z,21.30
2023-06-30T00:50:35.622Z,21.30
2023-06-30T00:53:02.467Z,21.30
2023-06-30T00:55:29.698Z,21.20
2023-06-30T00:57:56.324Z,21.20
2023-06-30T01:00:23.152Z,21.20
2023-06-30T01:03:02.531Z,21.20
2023-06-30T01:05:38.522Z,21.10
2023-06-30T01:08:18.827Z,21.10
2023-06-30T01:10:47.546Z,21.10
2023-06-30T01:13:15.071Z,21.10
2023-06-30T01:15:44.314Z,21.10
2023-06-30T01:18:13.665Z,21.10
2023-06-30T01:20:41.654Z,21.20
2023-06-30T01:23:16.728Z,21.20
2023-06-30T01:25:44.217Z,21.10
2023-06-30T01:28:12.117Z,21.10
2023-06-30T01:30:39.065Z,21.10
2023-06-30T01:33:05.975Z,21.10
2023-06-30T01:35:32.803Z,21.10
2023-06-30T01:38:00.679Z,21.10
2023-06-30T01:40:27.346Z,21.10
2023-06-30T01:42:56.649Z,21.00
2023-06-30T01:45:25.674Z,21.00
2023-06-30T01:47:52.919Z,21.00
2023-06-30T01:50:20.383Z,21.00
2023-06-30T01:52:47.300Z,21.00
2023-06-30T01:55:13.976Z,21.00
2023-06-30T01:57:40.709Z,21.00
2023-06-30T02:00:07.952Z,21.00
2023-06-30T02:02:34.746Z,21.00
2023-06-30T02:05:01.418Z,21.00
2023-06-30T02:07:28.126Z,21.00
2023-06-30T02:09:54.892Z,21.00
2023-06-30T02:12:21.568Z,20.90
2023-06-30T02:14:48.204Z,20.90
2023-06-30T02:17:15.089Z,20.90
2023-06-30T02:19:42.364Z,20.80
2023-06-30T02:22:08.986Z,20.80
2023-06-30T02:24:35.632Z,20.80
2023-06-30T02:27:02.319Z,20.70
2023-06-30T02:29:28.957Z,20.70
2023-06-30T02:31:55.633Z,20.70
2023-06-30T02:34:22.305Z,20.70
2023-06-30T02:36:49.668Z,20.60
2023-06-30T02:39:16.576Z,20.60
2023-06-30T02:41:43.221Z,20.60
2023-06-30T02:44:09.858Z,20.50
2023-06-30T02:46:36.494Z,20.50
2023-06-30T02:49:03.132Z,20.40
2023-06-30T02:51:29.820Z,20.40
2023-06-30T02:53:56.478Z,20.40
2023-06-30T02:56:23.134Z,20.30
2023-06-30T02:58:49.777Z,20.30
2023-06-30T03:01:17.131Z,20.30
2023-06-30T03:03:44.104Z,20.30
2023-06-30T03:06:10.832Z,20.30
2023-06-30T03:08:37.526Z,20.30
2023-06-30T03:11:04.188Z,20.30
2023-06-30T03:13:30.961Z,20.30
2023-06-30T03:15:58.173Z,20.30
2023-06-30T03:18:24.919Z,20.30
2023-06-30T03:20:51.618Z,20.20
2023-06-30T03:23:20.345Z,20.20
2023-06-30T03:25:47.298Z,20.20
2023-06-30T03:28:20.233Z,20.10
2023-06-30T03:30:47.011Z,20.10
2023-06-30T03:33:13.730Z,20.10
2023-06-30T03:35:40.352Z,20.00
2023-06-30T03:38:06.925Z,20.00
2023-06-30T03:40:33.571Z,20.00
2023-06-30T03:43:00.239Z,19.90
2023-06-30T03:45:26.858Z,19.90
2023-06-30T03:47:53.461Z,19.90
2023-06-30T03:50:20.113Z,19.80
2023-06-30T03:52:46.764Z,19.80
2023-06-30T03:55:13.542Z,19.80
2023-06-30T03:57:40.268Z,19.80
2023-06-30T04:00:08.647Z,19.90
2023-06-30T04:02:35.401Z,19.90
2023-06-30T04:05:02.114Z,20.00
2023-06-30T04:07:28.934Z,20.00
2023-06-30T04:09:56.908Z,20.00
2023-06-30T04:12:23.582Z,20.10
2023-06-30T04:14:50.215Z,20.20
2023-06-30T04:17:16.862Z,20.20
2023-06-30T04:19:43.509Z,20.30
2023-06-30T04:22:10.122Z,20.30
2023-06-30T04:24:36.801Z,20.40
2023-06-30T04:27:03.609Z,20.40
2023-06-30T04:29:30.889Z,20.60
2023-06-30T04:31:57.573Z,20.60
2023-06-30T04:34:24.281Z,20.70
2023-06-30T04:36:50.966Z,20.80
2023-06-30T04:39:17.867Z,20.80
2023-06-30T04:41:44.506Z,21.00
2023-06-30T04:44:11.210Z,21.00
2023-06-30T04:46:37.994Z,21.10
2023-06-30T04:49:05.858Z,21.10
2023-06-30T04:51:32.500Z,21.20
2023-06-30T04:53:59.395Z,21.20
2023-06-30T04:56:27.177Z,21.20
2023-06-30T04:58:53.823Z,21.30
2023-06-30T05:01:20.557Z,21.30
2023-06-30T05:03:47.267Z,21.40
2023-06-30T05:06:13.927Z,21.50
2023-06-30T05:08:40.557Z,21.70
2023-06-30T05:11:08.784Z,21.80
2023-06-30T05:13:35.655Z,22.00
2023-06-30T05:16:02.426Z,22.20
2023-06-30T05:18:29.165Z,22.40
2023-06-30T05:20:56.370Z,22.60
2023-06-30T05:23:24.725Z,22.70
2023-06-30T05:25:51.455Z,22.90
2023-06-30T05:28:18.093Z,23.00
2023-06-30T05:30:45.051Z,23.20
2023-06-30T05:33:11.721Z,23.30
2023-06-30T05:35:38.460Z,23.50
2023-06-30T05:38:05.160Z,23.60
2023-06-30T05:40:31.805Z,23.70
2023-06-30T05:42:58.477Z,24.10
2023-06-30T05:45:26.418Z,24.20
2023-06-30T05:47:53.123Z,24.20
2023-06-30T05:50:22.858Z,24.10
2023-06-30T05:52:49.872Z,24.10
2023-06-30T05:55:16.917Z,24.10
2023-06-30T05:57:43.549Z,24.20
2023-06-30T06:00:10.540Z,24.30
2023-06-30T06:02:37.246Z,24.30
2023-06-30T06:05:04.165Z,24.40
2023-06-30T06:07:30.903Z,24.70
2023-06-30T06:09:57.556Z,25.20
2023-06-30T06:12:24.184Z,25.50
2023-06-30T06:14:50.796Z,25.80
2023-06-30T06:17:17.443Z,26.20
2023-06-30T06:19:44.215Z,26.30
2023-06-30T06:22:10.910Z,26.40
2023-06-30T06:24:38.165Z,26.70
2023-06-30T06:27:05.167Z,26.70
2023-06-30T06:29:31.823Z,26.60
2023-06-30T06:31:58.433Z,26.30
2023-06-30T06:34:25.119Z,26.20
2023-06-30T06:36:51.761Z,26.10
2023-06-30T06:39:20.247Z,26.00
2023-06-30T06:41:46.883Z,26.20
2023-06-30T06:44:13.507Z,26.20
2023-06-30T06:46:40.281Z,26.40
2023-06-30T06:49:07.201Z,26.80
2023-06-30T06:51:34.552Z,27.20
2023-06-30T06:54:01.378Z,27.60
2023-06-30T06:56:28.061Z,27.70
2023-06-30T06:58:54.697Z,27.70
2023-06-30T07:01:21.597Z,27.90
2023-06-30T07:03:48.346Z,28.10
2023-06-30T07:06:15.094Z,28.20
2023-06-30T07:08:41.733Z,28.30
2023-06-30T07:11:09.196Z,28.50
2023-06-30T07:13:35.897Z,28.70
2023-06-30T07:16:02.578Z,28.70
2023-06-30T07:18:30.775Z,28.60
2023-06-30T07:20:57.539Z,28.50
2023-06-30T07:23:26.943Z,28.40
2023-06-30T07:25:54.121Z,28.40
2023-06-30T07:28:20.949Z,28.30
2023-06-30T07:30:47.759Z,28.20
2023-06-30T07:33:14.522Z,28.10
2023-06-30T07:35:41.623Z,28.00
2023-06-30T07:38:08.361Z,27.90
2023-06-30T07:43:06.051Z,27.70
2023-06-30T07:45:32.747Z,27.70
2023-06-30T07:47:59.436Z,27.70
2023-06-30T07:50:26.375Z,28.00
2023-06-30T07:52:53.010Z,28.30
2023-06-30T07:55:19.817Z,28.80
2023-06-30T07:57:48.088Z,29.30
2023-06-30T08:00:21.512Z,29.80
2023-06-30T08:02:48.568Z,30.30
2023-06-30T08:05:15.553Z,30.70
2023-06-30T08:07:50.609Z,31.00
2023-06-30T08:10:18.172Z,31.20
2023-06-30T08:12:45.143Z,31.30
2023-06-30T08:15:11.939Z,31.40
2023-06-30T08:17:53.965Z,31.50
2023-06-30T08:20:24.024Z,31.30
2023-06-30T08:22:51.022Z,31.20
2023-06-30T08:25:20.733Z,31.00
2023-06-30T08:27:47.349Z,30.80
2023-06-30T08:30:14.219Z,30.70
2023-06-30T08:32:40.977Z,30.70
2023-06-30T08:35:07.880Z,30.70
2023-06-30T08:37:34.554Z,30.90
2023-06-30T08:40:04.906Z,31.10
2023-06-30T08:42:34.865Z,31.20
2023-06-30T08:45:03.680Z,31.40
2023-06-30T08:47:33.411Z,31.40
2023-06-30T08:50:00.675Z,31.40
2023-06-30T08:52:27.724Z,31.40
2023-06-30T08:54:54.718Z,31.40
2023-06-30T08:57:22.454Z,31.40
2023-06-30T08:59:49.698Z,31.40
2023-06-30T09:02:16.760Z,31.50
2023-06-30T09:04:44.084Z,31.80
2023-06-30T09:07:19.177Z,32.00
2023-06-30T09:09:46.919Z,32.30
2023-06-30T09:12:15.109Z,32.50
2023-06-30T09:14:43.708Z,32.70
2023-06-30T09:17:10.480Z,32.90
2023-06-30T09:19:37.226Z,33.00
2023-06-30T09:22:51.874Z,33.20
2023-06-30T09:24:53.385Z,33.20
2023-06-30T09:27:20.177Z,33.30
2023-06-30T09:32:16.187Z,33.20
2023-06-30T09:34:42.867Z,33.00
2023-06-30T09:37:15.770Z,32.90
2023-06-30T09:39:50.156Z,32.80
2023-06-30T09:42:17.260Z,32.70
2023-06-30T09:44:44.038Z,32.40
2023-06-30T09:47:13.526Z,32.30
2023-06-30T09:49:44.202Z,32.20
2023-06-30T09:52:10.907Z,32.20
2023-06-30T09:54:44.400Z,32.00
2023-06-30T09:57:11.824Z,32.00
2023-06-30T09:59:38.602Z,32.00
2023-06-30T10:02:05.479Z,32.20
2023-06-30T10:04:32.120Z,32.50
2023-06-30T10:06:59.544Z,32.70
2023-06-30T10:09:26.432Z,32.90
2023-06-30T10:11:55.938Z,33.00
2023-06-30T10:14:30.941Z,32.90
2023-06-30T10:17:00.170Z,32.70
2023-06-30T10:19:29.140Z,32.40
2023-06-30T10:21:56.862Z,32.20
2023-06-30T10:24:28.226Z,32.00
2023-06-30T10:26:55.852Z,31.80
2023-06-30T10:29:23.393Z,31.60
2023-06-30T10:31:50.551Z,31.40
2023-06-30T10:34:18.586Z,31.40
2023-06-30T10:36:46.437Z,31.20
2023-06-30T10:39:13.873Z,31.10
2023-06-30T10:41:48.419Z,31.00
2023-06-30T10:44:16.160Z,30.90
2023-06-30T10:46:53.902Z,30.80
2023-06-30T10:49:30.619Z,30.70
2023-06-30T10:51:59.918Z,30.50
2023-06-30T10:54:29.628Z,30.40
2023-06-30T10:57:18.338Z,30.30
2023-06-30T10:59:46.229Z,30.30
2023-06-30T11:02:19.028Z,30.20
2023-06-30T11:04:47.363Z,30.10
2023-06-30T11:07:18.919Z,30.10
2023-06-30T11:09:48.835Z,30.10
2023-06-30T11:12:20.343Z,30.00
2023-06-30T11:14:57.396Z,30.10
2023-06-30T11:17:28.744Z,30.20
2023-06-30T11:20:14.637Z,30.30
2023-06-30T11:22:42.500Z,30.40
2023-06-30T11:25:12.335Z,30.50
2023-06-30T11:27:40.581Z,30.60
2023-06-30T11:30:08.382Z,30.70
2023-06-30T11:32:39.054Z,30.80
2023-06-30T11:35:10.715Z,31.00
2023-06-30T11:37:37.842Z,31.10
2023-06-30T11:40:07.698Z,31.20
2023-06-30T11:42:39.201Z,31.40
2023-06-30T11:45:06.577Z,31.40
2023-06-30T11:47:34.723Z,31.50
2023-06-30T11:50:09.231Z,31.60
2023-06-30T11:52:37.709Z,31.70
2023-06-30T11:55:07.893Z,31.60
2023-06-30T11:57:38.389Z,31.40
2023-06-30T12:00:13.375Z,31.10
2023-06-30T12:02:48.621Z,30.60
2023-06-30T12:05:24.610Z,30.10
2023-06-30T12:07:54.479Z,29.50
2023-06-30T12:10:38.526Z,29.20
2023-06-30T12:13:09.561Z,28.90
2023-06-30T12:15:37.833Z,28.70
2023-06-30T12:18:07.494Z,28.80
2023-06-30T12:20:40.105Z,28.90
2023-06-30T12:23:07.979Z,28.80
2023-06-30T12:25:36.430Z,28.80
2023-06-30T12:28:05.210Z,28.70
2023-06-30T12:30:32.291Z,28.60
2023-06-30T12:33:01.334Z,28.50
2023-06-30T12:35:30.119Z,28.50
2023-06-30T12:37:57.043Z,28.30
2023-06-30T12:40:25.680Z,28.20
2023-06-30T12:42:54.161Z,28.20
2023-06-30T12:45:21.181Z,28.20
2023-06-30T12:47:47.960Z,28.20
2023-06-30T12:50:14.692Z,28.00
2023-06-30T12:52:41.378Z,27.80
2023-06-30T12:55:09.786Z,27.60
2023-06-30T12:57:36.598Z,27.50
2023-06-30T13:00:07.831Z,27.50
2023-06-30T13:02:35.105Z,27.60
2023-06-30T13:05:02.114Z,27.50
2023-06-30T13:07:28.866Z,27.50
2023-06-30T13:09:55.550Z,27.50
2023-06-30T13:12:27.178Z,27.50
2023-06-30T13:14:54.806Z,27.50
2023-06-30T13:17:21.622Z,27.60
2023-06-30T13:19:49.035Z,27.70
2023-06-30T13:22:16.476Z,27.50
2023-06-30T13:24:47.136Z,27.40
2023-06-30T13:27:14.013Z,27.20
2023-06-30T13:29:52.233Z,27.20
2023-06-30T13:32:18.943Z,27.00
2023-06-30T13:34:47.000Z,27.00
2023-06-30T13:37:14.221Z,26.90
2023-06-30T13:39:41.270Z,26.80
2023-06-30T13:42:09.804Z,26.80
2023-06-30T13:44:37.661Z,26.90
2023-06-30T13:47:04.516Z,27.10
2023-06-30T13:49:31.273Z,27.20
2023-06-30T13:51:58.225Z,27.30
2023-06-30T13:54:25.137Z,27.40
2023-06-30T13:56:52.985Z,27.40
2023-06-30T13:59:19.698Z,27.30
2023-06-30T14:01:46.515Z,27.20
2023-06-30T14:04:13.513Z,27.20
2023-06-30T14:06:40.212Z,27.20
2023-06-30T14:09:10.725Z,27.10
2023-06-30T14:11:38.891Z,27.00
2023-06-30T14:14:06.274Z,27.10
2023-06-30T14:16:35.590Z,27.20
2023-06-30T14:19:02.655Z,27.20
2023-06-30T14:21:31.597Z,27.30
2023-06-30T14:23:59.130Z,27.40
2023-06-30T14:26:26.059Z,27.50
2023-06-30T14:28:53.893Z,27.60
2023-06-30T14:31:20.748Z,27.60
2023-06-30T14:33:47.435Z,27.80
2023-06-30T14:36:14.290Z,27.80
2023-06-30T14:38:40.978Z,27.90
2023-06-30T14:41:07.619Z,28.00
2023-06-30T14:43:34.345Z,28.00
2023-06-30T14:46:01.001Z,28.00
2023-06-30T14:48:27.674Z,27.90
2023-06-30T14:50:54.325Z,27.70
2023-06-30T14:53:20.979Z,27.50
2023-06-30T14:55:47.837Z,27.30
2023-06-30T14:58:14.684Z,27.10
2023-06-30T15:00:41.356Z,27.00
2023-06-30T15:03:08.226Z,26.90
2023-06-30T15:05:35.143Z,26.90
2023-06-30T15:08:01.859Z,26.90
2023-06-30T15:10:28.513Z,27.00
2023-06-30T15:12:55.253Z,27.10
2023-06-30T15:15:21.930Z,27.30
2023-06-30T15:17:48.602Z,27.50
2023-06-30T15:20:15.487Z,27.60
2023-06-30T15:22:42.650Z,27.50
2023-06-30T15:25:24.052Z,27.50
2023-06-30T15:27:50.864Z,27.50
2023-06-30T15:30:18.250Z,27.40
2023-06-30T15:32:45.177Z,27.30
2023-06-30T15:35:11.952Z,27.30
2023-06-30T15:37:39.508Z,27.40
2023-06-30T15:40:07.141Z,27.40
2023-06-30T15:42:33.991Z,27.50
2023-06-30T15:45:01.401Z,27.70
2023-06-30T15:47:28.094Z,27.80
2023-06-30T15:49:54.762Z,27.80
2023-06-30T15:52:21.453Z,27.70
2023-06-30T15:55:05.238Z,27.60
2023-06-30T15:57:31.874Z,27.50
2023-06-30T15:59:58.567Z,27.50
2023-06-30T16:02:25.295Z,27.40
2023-06-30T16:04:52.675Z,27.20
2023-06-30T16:07:19.376Z,27.10
2023-06-30T16:09:46.597Z,27.20
2023-06-30T16:12:13.260Z,27.20
2023-06-30T16:14:39.891Z,27.20
2023-06-30T16:17:06.788Z,27.20
2023-06-30T16:19:33.423Z,27.20
2023-06-30T16:22:00.232Z,27.10
2023-06-30T16:24:26.896Z,27.10
2023-06-30T16:26:53.637Z,27.10
2023-06-30T16:29:20.249Z,27.00
2023-06-30T16:31:46.923Z,26.90
2023-06-30T16:34:13.776Z,26.80
2023-06-30T16:36:41.158Z,26.70
2023-06-30T16:39:07.892Z,26.60
2023-06-30T16:41:34.536Z,26.50
2023-06-30T16:44:01.490Z,26.40
2023-06-30T16:46:28.807Z,26.40
2023-06-30T16:48:55.460Z,26.30
2023-06-30T16:51:22.137Z,26.20
2023-06-30T16:53:48.773Z,26.20
2023-06-30T16:56:15.463Z,26.20
2023-06-30T16:58:42.089Z,26.30
2023-06-30T17:01:08.775Z,26.40
2023-06-30T17:03:35.442Z,26.50
2023-06-30T17:06:02.226Z,26.50
2023-06-30T17:08:28.963Z,26.50
2023-06-30T17:10:55.979Z,26.40
2023-06-30T17:13:22.624Z,26.30
2023-06-30T17:15:49.411Z,26.20
2023-06-30T17:18:16.204Z,26.20
2023-06-30T17:20:43.455Z,26.20
2023-06-30T17:23:10.880Z,26.20
2023-06-30T17:25:37.517Z,26.20
2023-06-30T17:28:04.409Z,26.10
2023-06-30T17:30:31.020Z,26.00
2023-06-30T17:32:57.674Z,25.90
2023-06-30T17:35:24.788Z,25.80
2023-06-30T17:37:52.185Z,25.80
2023-06-30T17:40:18.871Z,25.70
2023-06-30T17:42:46.014Z,25.70
2023-06-30T17:45:12.641Z,25.60
2023-06-30T17:47:39.516Z,25.50
2023-06-30T17:50:06.978Z,25.40
2023-06-30T17:52:33.715Z,25.30
2023-06-30T17:55:00.392Z,25.30
2023-06-30T17:57:26.998Z,25.20
2023-06-30T17:59:53.772Z,25.20
2023-06-30T18:02:20.513Z,25.10
2023-06-30T18:04:48.186Z,25.00
2023-06-30T18:07:14.908Z,24.90
2023-06-30T18:09:43.902Z,24.80
2023-06-30T18:12:11.664Z,24.70
2023-06-30T18:14:39.298Z,24.70
2023-06-30T18:17:06.289Z,24.60
2023-06-30T18:19:33.149Z,24.60
2023-06-30T18:22:00.045Z,24.50
2023-06-30T18:24:26.773Z,24.40
2023-06-30T18:26:53.503Z,24.30
2023-06-30T18:29:23.768Z,24.30
2023-06-30T18:31:51.735Z,24.30
2023-06-30T18:34:19.154Z,24.20
2023-06-30T18:36:46.120Z,24.10
2023-06-30T18:39:12.886Z,24.10
2023-06-30T18:41:39.918Z,23.90
2023-06-30T18:44:06.603Z,23.90
2023-06-30T18:46:33.338Z,23.90
2023-06-30T18:49:02.189Z,23.80
2023-06-30T18:51:30.747Z,23.80
2023-06-30T18:53:57.477Z,23.70
2023-06-30T18:56:24.429Z,23.70
2023-06-30T18:58:57.699Z,23.50
2023-06-30T19:01:24.703Z,23.50
2023-06-30T19:03:53.003Z,23.50
2023-06-30T19:06:24.941Z,23.40
2023-06-30T19:08:54.149Z,23.40
2023-06-30T19:11:21.013Z,23.30
2023-06-30T19:13:47.705Z,23.20
2023-06-30T19:16:14.480Z,23.20
2023-06-30T19:18:41.413Z,23.10
2023-06-30T19:21:09.706Z,23.00
2023-06-30T19:23:38.122Z,23.00
2023-06-30T19:26:05.061Z,22.90
2023-06-30T19:28:31.759Z,22.80
2023-06-30T19:30:58.416Z,22.80
2023-06-30T19:33:29.577Z,22.70
2023-06-30T19:35:59.782Z,22.70
2023-06-30T19:38:26.891Z,22.70
2023-06-30T19:40:57.204Z,22.60
2023-06-30T19:43:24.175Z,22.50
2023-06-30T19:45:51.333Z,22.50
2023-06-30T19:48:20.054Z,22.40
2023-06-30T19:50:46.893Z,22.30
2023-06-30T19:53:13.689Z,22.30
2023-06-30T19:55:40.444Z,22.20
2023-06-30T19:58:10.368Z,22.20
2023-06-30T20:00:38.565Z,22.20
2023-06-30T20:03:05.636Z,22.10
2023-06-30T20:05:32.422Z,22.00
2023-06-30T20:07:59.082Z,22.00
2023-06-30T20:10:25.803Z,22.00
2023-06-30T20:12:52.688Z,22.00
2023-06-30T20:15:19.492Z,22.00
2023-06-30T20:17:46.243Z,22.00
2023-06-30T20:20:14.896Z,22.00
2023-06-30T20:22:42.300Z,22.00
2023-06-30T20:25:10.047Z,21.90
2023-06-30T20:27:36.754Z,21.80
2023-06-30T20:30:04.452Z,21.80
2023-06-30T20:32:31.270Z,21.80
2023-06-30T20:34:57.975Z,21.70
2023-06-30T20:37:25.271Z,21.60
2023-06-30T20:39:53.294Z,21.60
2023-06-30T20:42:22.280Z,21.50
2023-06-30T20:44:48.975Z,21.40
2023-06-30T20:47:17.248Z,21.40
2023-06-30T20:49:43.944Z,21.30
2023-06-30T20:52:10.744Z,21.30
2023-06-30T20:54:37.805Z,21.20
2023-06-30T20:57:04.749Z,21.20
2023-06-30T20:59:31.443Z,21.10
2023-06-30T21:01:58.408Z,21.10
2023-06-30T21:04:25.194Z,21.10
2023-06-30T21:06:52.022Z,21.10
2023-06-30T21:09:18.717Z,21.10
2023-06-30T21:11:45.463Z,21.10
2023-06-30T21:14:12.237Z,21.10
2023-06-30T21:16:39.110Z,21.10
2023-06-30T21:19:05.909Z,21.10
2023-06-30T21:21:32.713Z,21.10
2023-06-30T21:23:59.394Z,21.10
2023-06-30T21:26:26.145Z,21.10
2023-06-30T21:28:52.874Z,21.00
2023-06-30T21:31:19.743Z,21.00
2023-06-30T21:33:47.496Z,20.90
2023-06-30T21:36:14.602Z,20.80
2023-06-30T21:38:41.903Z,20.80
2023-06-30T21:41:09.505Z,20.80
2023-06-30T21:43:36.294Z,20.70
2023-06-30T21:46:14.030Z,20.70
2023-06-30T21:48:41.157Z,20.70
2023-06-30T21:51:09.137Z,20.70
2023-06-30T21:53:35.901Z,20.70
2023-06-30T21:56:02.567Z,20.70
2023-06-30T21:58:29.230Z,20.80
2023-06-30T22:00:55.988Z,20.70
2023-06-30T22:03:23.017Z,20.70
2023-06-30T22:05:51.106Z,20.70
2023-06-30T22:08:18.020Z,20.70
2023-06-30T22:10:44.730Z,20.80
2023-06-30T22:13:12.302Z,20.80
2023-06-30T22:15:39.340Z,20.80
2023-06-30T22:18:06.209Z,20.90
2023-06-30T22:20:33.021Z,20.90
2023-06-30T22:22:59.694Z,20.90
2023-06-30T22:25:26.376Z,20.90
2023-06-30T22:27:56.259Z,20.90
2023-06-30T22:30:25.518Z,20.90
2023-06-30T22:32:52.407Z,20.90
2023-06-30T22:35:19.201Z,21.00
2023-06-30T22:37:45.859Z,21.00
2023-06-30T22:40:13.777Z,21.00
2023-06-30T22:42:40.518Z,21.00
2023-06-30T22:45:08.000Z,21.00
2023-06-30T22:47:34.866Z,21.00
2023-06-30T22:50:01.894Z,21.00
2023-06-30T22:52:28.754Z,21.00
2023-06-30T22:54:55.465Z,21.00
2023-06-30T22:57:22.098Z,20.90
2023-06-30T22:59:52.202Z,20.90
2023-06-30T23:02:19.811Z,20.90
2023-06-30T23:04:46.662Z,20.90
2023-06-30T23:07:14.273Z,20.90
2023-06-30T23:09:41.093Z,20.90
2023-06-30T23:12:08.284Z,20.90
2023-06-30T23:14:35.151Z,20.90
2023-06-30T23:17:02.739Z,20.90
2023-06-30T23:19:29.811Z,20.90
2023-06-30T23:22:09.291Z,20.90
2023-06-30T23:24:36.745Z,20.90
2023-06-30T23:27:03.670Z,20.80
2023-06-30T23:29:35.231Z,20.80
2023-06-30T23:32:10.856Z,20.90
2023-06-30T23:34:40.084Z,20.80
2023-06-30T23:37:09.988Z,20.90
2023-06-30T23:39:36.629Z,20.80
2023-06-30T23:42:03.338Z,20.80
2023-06-30T23:44:30.275Z,20.70
2023-06-30T23:46:58.309Z,20.70
2023-06-30T23:49:25.092Z,20.70
2023-06-30T23:51:51.705Z,20.70
2023-06-30T23:54:18.829Z,20.70
2023-06-30T23:56:46.206Z,20.70
2023-06-30T23:59:12.857Z,20.60
